sensor_id;sensor_type;location;lat;lon;timestamp;temperature;humidity
68977;SHT31;56029;52.568;13.588;2022-09-09T00:01:54;14.25;99.99
68977;SHT31;56029;52.568;13.588;2022-09-09T00:04:34;14.25;99.99
68977;SHT31;56029;52.568;13.588;2022-09-09T00:07:25;14.27;99.99
68977;SHT31;56029;52.568;13.588;2022-09-09T00:12:43;14.20;99.99
68977;SHT31;56029;52.568;13.588;2022-09-09T00:15:19;14.18;99.99
68977;SHT31;56029;52.568;13.588;2022-09-09T00:17:56;14.15;99.99
68977;SHT31;56029;52.568;13.588;2022-09-09T00:20:35;14.14;99.99
68977;SHT31;56029;52.568;13.588;2022-09-09T00:23:25;14.11;99.99
68977;SHT31;56029;52.568;13.588;2022-09-09T00:29:09;14.03;99.99
68977;SHT31;56029;52.568;13.588;2022-09-09T00:31:39;13.96;99.99
68977;SHT31;56029;52.568;13.588;2022-09-09T00:34:23;13.93;99.99
68977;SHT31;56029;52.568;13.588;2022-09-09T00:36:52;13.96;99.99
68977;SHT31;56029;52.568;13.588;2022-09-09T00:39:40;13.96;99.99
68977;SHT31;56029;52.568;13.588;2022-09-09T00:42:26;14.01;99.99
68977;SHT31;56029;52.568;13.588;2022-09-09T00:45:07;14.07;99.99
68977;SHT31;56029;52.568;13.588;2022-09-09T00:47:53;14.13;99.99
68977;SHT31;56029;52.568;13.588;2022-09-09T00:58:18;14.18;99.99
68977;SHT31;56029;52.568;13.588;2022-09-09T01:00:47;14.20;99.99
68977;SHT31;56029;52.568;13.588;2022-09-09T01:09:10;14.17;99.99
68977;SHT31;56029;52.568;13.588;2022-09-09T01:12:02;14.15;99.99
68977;SHT31;56029;52.568;13.588;2022-09-09T01:22:34;13.98;99.99
68977;SHT31;56029;52.568;13.588;2022-09-09T01:25:19;13.96;99.99
68977;SHT31;56029;52.568;13.588;2022-09-09T01:27:47;13.90;99.99
68977;SHT31;56029;52.568;13.588;2022-09-09T01:30:16;13.90;99.99
68977;SHT31;56029;52.568;13.588;2022-09-09T01:32:44;13.84;99.99
68977;SHT31;56029;52.568;13.588;2022-09-09T01:38:12;13.80;99.99
68977;SHT31;56029;52.568;13.588;2022-09-09T01:40:39;13.78;99.99
68977;SHT31;56029;52.568;13.588;2022-09-09T01:43:05;13.74;99.99
68977;SHT31;56029;52.568;13.588;2022-09-09T01:45:32;13.70;99.99
68977;SHT31;56029;52.568;13.588;2022-09-09T01:47:59;13.70;99.99
68977;SHT31;56029;52.568;13.588;2022-09-09T01:50:25;13.69;99.99
68977;SHT31;56029;52.568;13.588;2022-09-09T01:52:58;13.65;99.99
68977;SHT31;56029;52.568;13.588;2022-09-09T01:55:29;13.60;99.99
68977;SHT31;56029;52.568;13.588;2022-09-09T02:01:15;13.56;99.99
68977;SHT31;56029;52.568;13.588;2022-09-09T02:03:47;13.52;99.99
68977;SHT31;56029;52.568;13.588;2022-09-09T02:06:30;13.49;99.99
68977;SHT31;56029;52.568;13.588;2022-09-09T02:09:00;13.46;99.99
68977;SHT31;56029;52.568;13.588;2022-09-09T02:11:28;13.43;99.99
68977;SHT31;56029;52.568;13.588;2022-09-09T02:13:59;13.42;99.99
68977;SHT31;56029;52.568;13.588;2022-09-09T02:16:34;13.40;99.99
68977;SHT31;56029;52.568;13.588;2022-09-09T02:19:08;13.38;99.99
68977;SHT31;56029;52.568;13.588;2022-09-09T02:21:40;13.35;99.99
68977;SHT31;56029;52.568;13.588;2022-09-09T02:24:08;13.34;99.99
68977;SHT31;56029;52.568;13.588;2022-09-09T02:26:39;13.32;99.99
68977;SHT31;56029;52.568;13.588;2022-09-09T02:29:11;13.29;99.99
68977;SHT31;56029;52.568;13.588;2022-09-09T02:31:39;13.25;99.99
68977;SHT31;56029;52.568;13.588;2022-09-09T02:34:08;13.23;99.99
68977;SHT31;56029;52.568;13.588;2022-09-09T02:36:36;13.18;99.99
68977;SHT31;56029;52.568;13.588;2022-09-09T02:39:07;13.20;99.99
68977;SHT31;56029;52.568;13.588;2022-09-09T02:41:36;13.16;99.99
68977;SHT31;56029;52.568;13.588;2022-09-09T02:44:08;13.14;99.99
68977;SHT31;56029;52.568;13.588;2022-09-09T02:49:50;13.11;99.99
68977;SHT31;56029;52.568;13.588;2022-09-09T02:52:45;13.08;99.99
68977;SHT31;56029;52.568;13.588;2022-09-09T02:55:27;13.04;99.99
68977;SHT31;56029;52.568;13.588;2022-09-09T02:57:56;13.02;99.99
68977;SHT31;56029;52.568;13.588;2022-09-09T03:00:26;13.08;99.99
68977;SHT31;56029;52.568;13.588;2022-09-09T03:02:52;13.08;99.99
68977;SHT31;56029;52.568;13.588;2022-09-09T03:05:20;13.07;99.99
68977;SHT31;56029;52.568;13.588;2022-09-09T03:07:46;13.01;99.99
68977;SHT31;56029;52.568;13.588;2022-09-09T03:10:12;12.99;99.99
68977;SHT31;56029;52.568;13.588;2022-09-09T03:12:39;12.94;99.99
68977;SHT31;56029;52.568;13.588;2022-09-09T03:15:05;12.95;99.99
68977;SHT31;56029;52.568;13.588;2022-09-09T03:17:31;12.91;99.99
68977;SHT31;56029;52.568;13.588;2022-09-09T03:19:57;12.88;99.99
68977;SHT31;56029;52.568;13.588;2022-09-09T03:22:24;12.84;99.99
68977;SHT31;56029;52.568;13.588;2022-09-09T03:24:51;12.81;99.99
68977;SHT31;56029;52.568;13.588;2022-09-09T03:27:17;12.80;99.99
68977;SHT31;56029;52.568;13.588;2022-09-09T03:29:45;12.77;99.99
68977;SHT31;56029;52.568;13.588;2022-09-09T03:32:11;12.77;99.99
68977;SHT31;56029;52.568;13.588;2022-09-09T03:34:37;12.76;99.99
68977;SHT31;56029;52.568;13.588;2022-09-09T03:37:05;12.70;99.99
68977;SHT31;56029;52.568;13.588;2022-09-09T03:39:31;12.73;99.99
68977;SHT31;56029;52.568;13.588;2022-09-09T03:41:57;12.68;99.99
68977;SHT31;56029;52.568;13.588;2022-09-09T03:44:22;12.67;99.99
68977;SHT31;56029;52.568;13.588;2022-09-09T03:46:48;12.70;99.99
68977;SHT31;56029;52.568;13.588;2022-09-09T03:49:13;12.65;99.99
68977;SHT31;56029;52.568;13.588;2022-09-09T03:51:40;12.64;99.99
68977;SHT31;56029;52.568;13.588;2022-09-09T03:54:06;12.67;99.99
68977;SHT31;56029;52.568;13.588;2022-09-09T03:56:34;12.63;99.99
68977;SHT31;56029;52.568;13.588;2022-09-09T03:59:00;12.61;99.99
68977;SHT31;56029;52.568;13.588;2022-09-09T04:01:26;12.61;99.99
68977;SHT31;56029;52.568;13.588;2022-09-09T04:03:52;12.56;99.99
68977;SHT31;56029;52.568;13.588;2022-09-09T04:06:18;12.57;99.99
68977;SHT31;56029;52.568;13.588;2022-09-09T04:08:45;12.53;99.99
68977;SHT31;56029;52.568;13.588;2022-09-09T04:11:14;12.54;99.99
68977;SHT31;56029;52.568;13.588;2022-09-09T04:13:40;12.60;99.99
68977;SHT31;56029;52.568;13.588;2022-09-09T04:16:07;12.59;99.99
68977;SHT31;56029;52.568;13.588;2022-09-09T04:18:34;12.60;99.99
68977;SHT31;56029;52.568;13.588;2022-09-09T04:21:00;12.59;99.99
68977;SHT31;56029;52.568;13.588;2022-09-09T04:23:27;12.57;99.99
68977;SHT31;56029;52.568;13.588;2022-09-09T04:25:56;12.59;99.99
68977;SHT31;56029;52.568;13.588;2022-09-09T04:28:24;12.57;99.99
68977;SHT31;56029;52.568;13.588;2022-09-09T04:30:50;12.50;99.99
68977;SHT31;56029;52.568;13.588;2022-09-09T04:33:18;12.49;99.99
68977;SHT31;56029;52.568;13.588;2022-09-09T04:35:46;12.41;99.99
68977;SHT31;56029;52.568;13.588;2022-09-09T04:38:13;12.43;99.99
68977;SHT31;56029;52.568;13.588;2022-09-09T04:40:39;12.43;99.99
68977;SHT31;56029;52.568;13.588;2022-09-09T04:43:08;12.46;99.99
68977;SHT31;56029;52.568;13.588;2022-09-09T04:45:34;12.47;99.99
68977;SHT31;56029;52.568;13.588;2022-09-09T04:48:00;12.50;99.99
68977;SHT31;56029;52.568;13.588;2022-09-09T04:50:25;12.51;99.99
68977;SHT31;56029;52.568;13.588;2022-09-09T04:52:51;12.56;99.99
68977;SHT31;56029;52.568;13.588;2022-09-09T04:55:16;12.57;99.99
68977;SHT31;56029;52.568;13.588;2022-09-09T04:57:42;12.56;99.99
68977;SHT31;56029;52.568;13.588;2022-09-09T05:00:08;12.57;99.99
68977;SHT31;56029;52.568;13.588;2022-09-09T05:02:39;12.61;99.99
68977;SHT31;56029;52.568;13.588;2022-09-09T05:05:05;12.65;99.99
68977;SHT31;56029;52.568;13.588;2022-09-09T05:07:31;12.65;99.99
68977;SHT31;56029;52.568;13.588;2022-09-09T05:09:57;12.68;99.99
68977;SHT31;56029;52.568;13.588;2022-09-09T05:12:23;12.70;99.99
68977;SHT31;56029;52.568;13.588;2022-09-09T05:14:49;12.71;99.99
68977;SHT31;56029;52.568;13.588;2022-09-09T05:17:15;12.78;99.99
68977;SHT31;56029;52.568;13.588;2022-09-09T05:19:41;12.83;99.99
68977;SHT31;56029;52.568;13.588;2022-09-09T05:22:07;12.85;99.99
68977;SHT31;56029;52.568;13.588;2022-09-09T05:24:33;12.94;99.99
68977;SHT31;56029;52.568;13.588;2022-09-09T05:26:58;13.04;99.99
68977;SHT31;56029;52.568;13.588;2022-09-09T05:29:25;13.07;99.99
68977;SHT31;56029;52.568;13.588;2022-09-09T05:31:52;13.15;99.99
68977;SHT31;56029;52.568;13.588;2022-09-09T05:34:17;13.19;99.99
68977;SHT31;56029;52.568;13.588;2022-09-09T05:36:42;13.29;99.99
68977;SHT31;56029;52.568;13.588;2022-09-09T05:39:08;13.38;99.99
68977;SHT31;56029;52.568;13.588;2022-09-09T05:41:34;13.42;99.99
68977;SHT31;56029;52.568;13.588;2022-09-09T05:44:00;13.52;99.99
68977;SHT31;56029;52.568;13.588;2022-09-09T05:46:27;13.56;99.99
68977;SHT31;56029;52.568;13.588;2022-09-09T05:48:53;13.66;99.99
68977;SHT31;56029;52.568;13.588;2022-09-09T05:51:23;13.73;99.99
68977;SHT31;56029;52.568;13.588;2022-09-09T05:53:50;13.78;99.99
68977;SHT31;56029;52.568;13.588;2022-09-09T05:56:21;13.86;99.99
68977;SHT31;56029;52.568;13.588;2022-09-09T05:58:50;13.93;99.99
68977;SHT31;56029;52.568;13.588;2022-09-09T06:01:20;14.01;99.99
68977;SHT31;56029;52.568;13.588;2022-09-09T06:03:47;14.01;99.99
68977;SHT31;56029;52.568;13.588;2022-09-09T06:06:16;14.11;99.99
68977;SHT31;56029;52.568;13.588;2022-09-09T06:08:44;14.18;99.99
68977;SHT31;56029;52.568;13.588;2022-09-09T06:11:13;14.25;99.99
68977;SHT31;56029;52.568;13.588;2022-09-09T06:13:39;14.34;99.99
68977;SHT31;56029;52.568;13.588;2022-09-09T06:16:16;14.36;99.99
68977;SHT31;56029;52.568;13.588;2022-09-09T06:18:42;14.48;99.99
68977;SHT31;56029;52.568;13.588;2022-09-09T06:21:14;14.56;99.99
68977;SHT31;56029;52.568;13.588;2022-09-09T06:23:40;14.62;99.99
68977;SHT31;56029;52.568;13.588;2022-09-09T06:26:10;14.63;99.72
68977;SHT31;56029;52.568;13.588;2022-09-09T06:28:37;14.66;99.95
68977;SHT31;56029;52.568;13.588;2022-09-09T06:31:07;14.71;99.55
68977;SHT31;56029;52.568;13.588;2022-09-09T06:33:35;14.77;99.84
68977;SHT31;56029;52.568;13.588;2022-09-09T06:36:10;14.84;99.99
68977;SHT31;56029;52.568;13.588;2022-09-09T06:38:36;14.86;99.36
68977;SHT31;56029;52.568;13.588;2022-09-09T06:41:02;14.90;99.56
68977;SHT31;56029;52.568;13.588;2022-09-09T06:43:28;14.93;99.18
68977;SHT31;56029;52.568;13.588;2022-09-09T06:46:24;14.99;98.66
68977;SHT31;56029;52.568;13.588;2022-09-09T06:48:54;15.04;98.94
68977;SHT31;56029;52.568;13.588;2022-09-09T06:51:25;15.08;98.77
68977;SHT31;56029;52.568;13.588;2022-09-09T06:53:52;15.17;98.72
68977;SHT31;56029;52.568;13.588;2022-09-09T06:56:31;15.31;99.15
68977;SHT31;56029;52.568;13.588;2022-09-09T06:58:59;15.35;98.53
68977;SHT31;56029;52.568;13.588;2022-09-09T07:01:28;15.45;98.59
68977;SHT31;56029;52.568;13.588;2022-09-09T07:03:55;15.54;97.45
68977;SHT31;56029;52.568;13.588;2022-09-09T07:06:27;15.69;98.19
68977;SHT31;56029;52.568;13.588;2022-09-09T07:08:55;15.86;96.71
68977;SHT31;56029;52.568;13.588;2022-09-09T07:11:22;15.86;95.79
68977;SHT31;56029;52.568;13.588;2022-09-09T07:13:49;15.93;96.09
68977;SHT31;56029;52.568;13.588;2022-09-09T07:16:17;16.00;95.40
68977;SHT31;56029;52.568;13.588;2022-09-09T07:18:43;16.05;96.53
68977;SHT31;56029;52.568;13.588;2022-09-09T07:21:11;16.13;95.14
68977;SHT31;56029;52.568;13.588;2022-09-09T07:23:38;16.17;94.12
68977;SHT31;56029;52.568;13.588;2022-09-09T07:26:18;16.23;93.54
68977;SHT31;56029;52.568;13.588;2022-09-09T07:28:48;16.30;94.46
68977;SHT31;56029;52.568;13.588;2022-09-09T07:31:22;16.40;93.81
68977;SHT31;56029;52.568;13.588;2022-09-09T07:33:48;16.47;93.93
68977;SHT31;56029;52.568;13.588;2022-09-09T07:36:25;16.54;93.33
68977;SHT31;56029;52.568;13.588;2022-09-09T07:38:56;16.57;93.70
68977;SHT31;56029;52.568;13.588;2022-09-09T07:41:34;16.58;94.14
68977;SHT31;56029;52.568;13.588;2022-09-09T07:44:04;16.67;93.18
68977;SHT31;56029;52.568;13.588;2022-09-09T07:46:30;16.74;93.37
68977;SHT31;56029;52.568;13.588;2022-09-09T07:48:56;16.89;93.96
68977;SHT31;56029;52.568;13.588;2022-09-09T07:51:25;16.95;92.89
68977;SHT31;56029;52.568;13.588;2022-09-09T07:53:59;17.05;92.77
68977;SHT31;56029;52.568;13.588;2022-09-09T07:56:27;17.15;90.85
68977;SHT31;56029;52.568;13.588;2022-09-09T07:58:54;17.16;90.92
68977;SHT31;56029;52.568;13.588;2022-09-09T08:01:24;17.32;90.71
68977;SHT31;56029;52.568;13.588;2022-09-09T08:03:55;17.46;90.55
68977;SHT31;56029;52.568;13.588;2022-09-09T08:06:22;17.53;89.15
68977;SHT31;56029;52.568;13.588;2022-09-09T08:08:50;17.66;90.05
68977;SHT31;56029;52.568;13.588;2022-09-09T08:11:16;17.73;87.34
68977;SHT31;56029;52.568;13.588;2022-09-09T08:13:43;17.81;86.73
68977;SHT31;56029;52.568;13.588;2022-09-09T08:16:15;17.87;89.07
68977;SHT31;56029;52.568;13.588;2022-09-09T08:18:41;17.88;89.04
68977;SHT31;56029;52.568;13.588;2022-09-09T08:21:08;17.90;88.41
68977;SHT31;56029;52.568;13.588;2022-09-09T08:23:34;17.93;89.54
68977;SHT31;56029;52.568;13.588;2022-09-09T08:26:10;18.00;88.67
68977;SHT31;56029;52.568;13.588;2022-09-09T08:28:36;18.01;88.32
68977;SHT31;56029;52.568;13.588;2022-09-09T08:31:16;18.04;86.76
68977;SHT31;56029;52.568;13.588;2022-09-09T08:33:43;18.07;87.92
68977;SHT31;56029;52.568;13.588;2022-09-09T08:36:12;18.04;87.12
68977;SHT31;56029;52.568;13.588;2022-09-09T08:38:41;18.08;87.52
68977;SHT31;56029;52.568;13.588;2022-09-09T08:50:01;18.12;86.80
68977;SHT31;56029;52.568;13.588;2022-09-09T08:55:49;18.14;87.60
68977;SHT31;56029;52.568;13.588;2022-09-09T08:58:21;18.12;86.90
68977;SHT31;56029;52.568;13.588;2022-09-09T09:08:38;18.32;87.47
68977;SHT31;56029;52.568;13.588;2022-09-09T09:11:06;18.45;86.73
68977;SHT31;56029;52.568;13.588;2022-09-09T09:16:13;18.72;86.85
68977;SHT31;56029;52.568;13.588;2022-09-09T09:18:43;18.89;86.48
68977;SHT31;56029;52.568;13.588;2022-09-09T09:23:51;19.23;83.21
68977;SHT31;56029;52.568;13.588;2022-09-09T09:26:19;19.41;84.01
68977;SHT31;56029;52.568;13.588;2022-09-09T09:28:45;19.62;81.69
68977;SHT31;56029;52.568;13.588;2022-09-09T09:31:12;19.85;82.27
68977;SHT31;56029;52.568;13.588;2022-09-09T09:33:47;20.05;82.31
68977;SHT31;56029;52.568;13.588;2022-09-09T09:36:13;20.19;80.85
68977;SHT31;56029;52.568;13.588;2022-09-09T09:39:02;20.29;79.38
68977;SHT31;56029;52.568;13.588;2022-09-09T09:41:49;20.38;79.89
68977;SHT31;56029;52.568;13.588;2022-09-09T09:44:29;20.54;79.61
68977;SHT31;56029;52.568;13.588;2022-09-09T09:47:07;20.58;79.00
68977;SHT31;56029;52.568;13.588;2022-09-09T09:49:34;20.40;75.35
68977;SHT31;56029;52.568;13.588;2022-09-09T09:52:03;20.31;76.35
68977;SHT31;56029;52.568;13.588;2022-09-09T09:54:31;20.24;77.45
68977;SHT31;56029;52.568;13.588;2022-09-09T09:57:12;20.21;76.77
68977;SHT31;56029;52.568;13.588;2022-09-09T09:59:38;20.23;77.15
68977;SHT31;56029;52.568;13.588;2022-09-09T10:02:14;20.17;78.00
68977;SHT31;56029;52.568;13.588;2022-09-09T10:04:40;20.19;79.06
68977;SHT31;56029;52.568;13.588;2022-09-09T10:07:17;20.37;80.70
68977;SHT31;56029;52.568;13.588;2022-09-09T10:09:43;20.45;79.82
68977;SHT31;56029;52.568;13.588;2022-09-09T10:15:18;20.65;75.89
68977;SHT31;56029;52.568;13.588;2022-09-09T10:18:01;20.67;75.73
68977;SHT31;56029;52.568;13.588;2022-09-09T10:21:00;20.75;76.59
68977;SHT31;56029;52.568;13.588;2022-09-09T10:31:54;20.95;77.50
68977;SHT31;56029;52.568;13.588;2022-09-09T10:34:56;21.00;76.40
68977;SHT31;56029;52.568;13.588;2022-09-09T10:37:44;20.99;75.49
68977;SHT31;56029;52.568;13.588;2022-09-09T10:40:23;20.99;75.06
68977;SHT31;56029;52.568;13.588;2022-09-09T10:42:58;20.78;74.85
68977;SHT31;56029;52.568;13.588;2022-09-09T10:45:35;20.88;75.29
68977;SHT31;56029;52.568;13.588;2022-09-09T10:53:57;21.18;73.57
68977;SHT31;56029;52.568;13.588;2022-09-09T10:56:27;21.18;75.07
68977;SHT31;56029;52.568;13.588;2022-09-09T10:59:22;20.98;74.77
68977;SHT31;56029;52.568;13.588;2022-09-09T11:01:56;20.85;75.44
68977;SHT31;56029;52.568;13.588;2022-09-09T11:04:31;20.77;75.40
68977;SHT31;56029;52.568;13.588;2022-09-09T11:07:05;20.79;75.85
68977;SHT31;56029;52.568;13.588;2022-09-09T11:09:36;20.77;74.80
68977;SHT31;56029;52.568;13.588;2022-09-09T11:12:05;20.96;76.52
68977;SHT31;56029;52.568;13.588;2022-09-09T11:14:39;21.08;74.41
68977;SHT31;56029;52.568;13.588;2022-09-09T11:17:12;21.25;74.32
68977;SHT31;56029;52.568;13.588;2022-09-09T11:19:40;21.29;72.28
68977;SHT31;56029;52.568;13.588;2022-09-09T11:22:15;21.32;73.74
68977;SHT31;56029;52.568;13.588;2022-09-09T11:24:56;21.37;72.94
68977;SHT31;56029;52.568;13.588;2022-09-09T11:27:29;21.42;74.76
68977;SHT31;56029;52.568;13.588;2022-09-09T11:30:19;21.53;73.49
68977;SHT31;56029;52.568;13.588;2022-09-09T11:32:54;21.47;73.18
68977;SHT31;56029;52.568;13.588;2022-09-09T11:38:44;21.66;73.01
68977;SHT31;56029;52.568;13.588;2022-09-09T11:41:11;21.75;74.13
68977;SHT31;56029;52.568;13.588;2022-09-09T11:43:47;21.90;73.15
68977;SHT31;56029;52.568;13.588;2022-09-09T11:46:15;21.93;71.66
68977;SHT31;56029;52.568;13.588;2022-09-09T11:48:57;22.19;71.28
68977;SHT31;56029;52.568;13.588;2022-09-09T11:53:57;22.31;68.62
68977;SHT31;56029;52.568;13.588;2022-09-09T11:56:25;22.57;70.20
68977;SHT31;56029;52.568;13.588;2022-09-09T11:59:00;22.63;67.14
68977;SHT31;56029;52.568;13.588;2022-09-09T12:01:34;22.74;70.25
68977;SHT31;56029;52.568;13.588;2022-09-09T12:06:45;22.73;69.11
68977;SHT31;56029;52.568;13.588;2022-09-09T12:17:18;22.79;66.80
68977;SHT31;56029;52.568;13.588;2022-09-09T12:19:44;22.73;66.94
68977;SHT31;56029;52.568;13.588;2022-09-09T12:28:20;22.84;67.98
68977;SHT31;56029;52.568;13.588;2022-09-09T12:31:09;22.80;66.53
68977;SHT31;56029;52.568;13.588;2022-09-09T12:33:37;22.87;67.53
68977;SHT31;56029;52.568;13.588;2022-09-09T12:36:10;22.80;65.51
68977;SHT31;56029;52.568;13.588;2022-09-09T12:38:40;22.66;67.17
68977;SHT31;56029;52.568;13.588;2022-09-09T12:41:06;22.59;66.22
68977;SHT31;56029;52.568;13.588;2022-09-09T12:43:31;22.55;67.18
68977;SHT31;56029;52.568;13.588;2022-09-09T12:46:08;22.57;66.52
68977;SHT31;56029;52.568;13.588;2022-09-09T12:48:38;22.56;67.69
68977;SHT31;56029;52.568;13.588;2022-09-09T12:51:15;22.63;66.68
68977;SHT31;56029;52.568;13.588;2022-09-09T12:53:42;22.66;68.45
68977;SHT31;56029;52.568;13.588;2022-09-09T12:56:09;22.69;67.22
68977;SHT31;56029;52.568;13.588;2022-09-09T12:58:46;22.66;66.49
68977;SHT31;56029;52.568;13.588;2022-09-09T13:01:32;22.62;67.17
68977;SHT31;56029;52.568;13.588;2022-09-09T13:03:58;22.62;67.23
68977;SHT31;56029;52.568;13.588;2022-09-09T13:06:32;22.62;66.82
68977;SHT31;56029;52.568;13.588;2022-09-09T13:08:59;22.62;66.87
68977;SHT31;56029;52.568;13.588;2022-09-09T13:11:29;22.62;66.24
68977;SHT31;56029;52.568;13.588;2022-09-09T13:13:57;22.67;67.25
68977;SHT31;56029;52.568;13.588;2022-09-09T13:16:28;22.69;65.58
68977;SHT31;56029;52.568;13.588;2022-09-09T13:18:58;22.64;65.61
68977;SHT31;56029;52.568;13.588;2022-09-09T13:21:38;22.69;66.31
68977;SHT31;56029;52.568;13.588;2022-09-09T13:24:06;22.72;66.22
68977;SHT31;56029;52.568;13.588;2022-09-09T13:26:54;22.76;66.33
68977;SHT31;56029;52.568;13.588;2022-09-09T13:29:21;22.82;66.15
68977;SHT31;56029;52.568;13.588;2022-09-09T13:31:48;22.83;65.68
68977;SHT31;56029;52.568;13.588;2022-09-09T13:34:25;22.83;65.53
68977;SHT31;56029;52.568;13.588;2022-09-09T13:37:02;22.86;65.75
68977;SHT31;56029;52.568;13.588;2022-09-09T13:39:33;22.86;65.98
68977;SHT31;56029;52.568;13.588;2022-09-09T13:41:59;22.91;65.85
68977;SHT31;56029;52.568;13.588;2022-09-09T13:44:27;22.97;66.81
68977;SHT31;56029;52.568;13.588;2022-09-09T13:47:05;23.03;65.92
68977;SHT31;56029;52.568;13.588;2022-09-09T13:49:31;23.06;64.67
68977;SHT31;56029;52.568;13.588;2022-09-09T13:52:11;23.00;63.87
68977;SHT31;56029;52.568;13.588;2022-09-09T13:54:39;22.97;66.08
68977;SHT31;56029;52.568;13.588;2022-09-09T13:57:13;23.00;65.62
68977;SHT31;56029;52.568;13.588;2022-09-09T13:59:39;23.01;66.11
68977;SHT31;56029;52.568;13.588;2022-09-09T14:02:05;23.24;65.32
68977;SHT31;56029;52.568;13.588;2022-09-09T14:04:30;23.45;63.70
68977;SHT31;56029;52.568;13.588;2022-09-09T14:06:56;23.72;63.18
68977;SHT31;56029;52.568;13.588;2022-09-09T14:09:22;23.85;62.93
68977;SHT31;56029;52.568;13.588;2022-09-09T14:11:47;23.86;63.29
68977;SHT31;56029;52.568;13.588;2022-09-09T14:14:13;23.90;64.29
68977;SHT31;56029;52.568;13.588;2022-09-09T14:16:38;23.79;62.93
68977;SHT31;56029;52.568;13.588;2022-09-09T14:19:04;23.59;63.74
68977;SHT31;56029;52.568;13.588;2022-09-09T14:21:29;23.35;64.18
68977;SHT31;56029;52.568;13.588;2022-09-09T14:23:55;23.27;65.11
68977;SHT31;56029;52.568;13.588;2022-09-09T14:26:23;23.11;65.17
68977;SHT31;56029;52.568;13.588;2022-09-09T14:28:49;23.07;66.84
68977;SHT31;56029;52.568;13.588;2022-09-09T14:31:15;23.08;66.10
68977;SHT31;56029;52.568;13.588;2022-09-09T14:33:46;23.18;66.78
68977;SHT31;56029;52.568;13.588;2022-09-09T14:36:12;23.27;64.66
68977;SHT31;56029;52.568;13.588;2022-09-09T14:38:38;23.31;64.44
68977;SHT31;56029;52.568;13.588;2022-09-09T14:41:12;23.34;64.92
68977;SHT31;56029;52.568;13.588;2022-09-09T14:43:39;23.44;63.75
68977;SHT31;56029;52.568;13.588;2022-09-09T14:46:13;23.58;63.70
68977;SHT31;56029;52.568;13.588;2022-09-09T14:48:39;23.73;63.64
68977;SHT31;56029;52.568;13.588;2022-09-09T14:51:18;23.75;63.48
68977;SHT31;56029;52.568;13.588;2022-09-09T14:53:45;23.69;64.54
68977;SHT31;56029;52.568;13.588;2022-09-09T14:56:17;23.63;64.47
68977;SHT31;56029;52.568;13.588;2022-09-09T14:58:42;23.45;65.88
68977;SHT31;56029;52.568;13.588;2022-09-09T15:01:11;23.44;63.49
68977;SHT31;56029;52.568;13.588;2022-09-09T15:03:39;23.28;62.33
68977;SHT31;56029;52.568;13.588;2022-09-09T15:06:10;23.15;64.41
68977;SHT31;56029;52.568;13.588;2022-09-09T15:08:37;23.01;63.73
68977;SHT31;56029;52.568;13.588;2022-09-09T15:11:04;22.90;65.19
68977;SHT31;56029;52.568;13.588;2022-09-09T15:13:32;22.84;64.94
68977;SHT31;56029;52.568;13.588;2022-09-09T15:16:04;22.82;66.65
68977;SHT31;56029;52.568;13.588;2022-09-09T15:18:30;22.77;66.15
68977;SHT31;56029;52.568;13.588;2022-09-09T15:20:55;22.76;66.44
68977;SHT31;56029;52.568;13.588;2022-09-09T15:23:21;22.73;67.34
68977;SHT31;56029;52.568;13.588;2022-09-09T15:25:54;22.69;67.67
68977;SHT31;56029;52.568;13.588;2022-09-09T15:28:20;22.66;68.56
68977;SHT31;56029;52.568;13.588;2022-09-09T15:30:50;22.69;69.31
68977;SHT31;56029;52.568;13.588;2022-09-09T15:33:18;22.80;67.25
68977;SHT31;56029;52.568;13.588;2022-09-09T15:35:45;22.77;67.55
68977;SHT31;56029;52.568;13.588;2022-09-09T15:38:11;22.83;68.34
68977;SHT31;56029;52.568;13.588;2022-09-09T15:40:39;23.14;65.65
68977;SHT31;56029;52.568;13.588;2022-09-09T15:43:06;23.41;64.87
68977;SHT31;56029;52.568;13.588;2022-09-09T15:45:32;23.89;62.44
68977;SHT31;56029;52.568;13.588;2022-09-09T15:48:00;24.00;63.77
68977;SHT31;56029;52.568;13.588;2022-09-09T15:50:25;24.34;60.29
68977;SHT31;56029;52.568;13.588;2022-09-09T15:52:51;24.44;61.60
68977;SHT31;56029;52.568;13.588;2022-09-09T15:55:19;24.31;62.53
68977;SHT31;56029;52.568;13.588;2022-09-09T15:57:50;24.54;62.26
68977;SHT31;56029;52.568;13.588;2022-09-09T16:00:19;24.61;62.32
68977;SHT31;56029;52.568;13.588;2022-09-09T16:02:46;24.77;60.44
68977;SHT31;56029;52.568;13.588;2022-09-09T16:05:12;25.15;59.75
68977;SHT31;56029;52.568;13.588;2022-09-09T16:07:37;25.47;58.32
68977;SHT31;56029;52.568;13.588;2022-09-09T16:10:03;25.27;58.12
68977;SHT31;56029;52.568;13.588;2022-09-09T16:12:29;25.05;58.45
68977;SHT31;56029;52.568;13.588;2022-09-09T16:14:54;24.64;59.85
68977;SHT31;56029;52.568;13.588;2022-09-09T16:17:20;24.30;60.75
68977;SHT31;56029;52.568;13.588;2022-09-09T16:19:46;23.88;62.57
68977;SHT31;56029;52.568;13.588;2022-09-09T16:22:11;23.58;63.00
68977;SHT31;56029;52.568;13.588;2022-09-09T16:24:37;23.35;64.44
68977;SHT31;56029;52.568;13.588;2022-09-09T16:27:03;23.11;64.06
68977;SHT31;56029;52.568;13.588;2022-09-09T16:29:29;22.97;64.76
68977;SHT31;56029;52.568;13.588;2022-09-09T16:31:55;22.66;66.53
68977;SHT31;56029;52.568;13.588;2022-09-09T16:34:21;22.48;68.47
68977;SHT31;56029;52.568;13.588;2022-09-09T16:36:47;22.26;69.77
68977;SHT31;56029;52.568;13.588;2022-09-09T16:39:16;22.11;70.40
68977;SHT31;56029;52.568;13.588;2022-09-09T16:41:42;21.91;71.44
68977;SHT31;56029;52.568;13.588;2022-09-09T16:44:10;21.78;71.78
68977;SHT31;56029;52.568;13.588;2022-09-09T16:46:38;21.67;72.37
68977;SHT31;56029;52.568;13.588;2022-09-09T16:49:06;21.50;72.91
68977;SHT31;56029;52.568;13.588;2022-09-09T16:51:38;21.35;73.68
68977;SHT31;56029;52.568;13.588;2022-09-09T16:54:06;21.20;74.52
68977;SHT31;56029;52.568;13.588;2022-09-09T16:56:38;21.09;75.49
68977;SHT31;56029;52.568;13.588;2022-09-09T16:59:15;20.98;74.65
68977;SHT31;56029;52.568;13.588;2022-09-09T17:01:42;20.84;75.49
68977;SHT31;56029;52.568;13.588;2022-09-09T17:04:17;20.68;75.41
68977;SHT31;56029;52.568;13.588;2022-09-09T17:06:50;20.52;76.16
68977;SHT31;56029;52.568;13.588;2022-09-09T17:09:17;20.40;76.93
68977;SHT31;56029;52.568;13.588;2022-09-09T17:11:43;20.33;77.14
68977;SHT31;56029;52.568;13.588;2022-09-09T17:14:14;20.20;77.64
68977;SHT31;56029;52.568;13.588;2022-09-09T17:16:40;20.03;78.61